Time;durP1;ratioP1;P1;durP2;ratioP2;P2;SDS_P1;SDS_P2;PMS_P1;PMS_P2;Temp;Humidity;BMP_temperature;BMP_pressure;BME280_temperature;BME280_humidity;BME280_pressure;Samples;Min_cycle;Max_cycle;Signal;HPM_P1;HPM_P2
2022/10/11 00:00:33;;;;;;;28.20;8.60;;;;;;;7.55;68.75;100405.69;5099853;27;1545117;-93
2022/10/11 00:03:37;;;;;;;18.98;8.32;;;;;;;7.51;69.13;100405.34;5103208;22;20414;-91
2022/10/11 00:06:29;;;;;;;25.30;9.55;;;;;;;7.47;69.48;100401.53;5165103;27;20883;-89
2022/10/11 00:12:27;;;;;;;30.48;10.27;;;;;;;7.02;69.39;100342.34;5078422;27;20476;-91
2022/10/11 00:15:21;;;;;;;31.90;11.95;;;;;;;7.30;69.03;100384.59;4625459;27;15098482;-90
2022/10/11 00:18:11;;;;;;;33.25;13.95;;;;;;;7.02;68.84;100348.59;5075463;22;1834784;-91
2022/10/11 00:21:07;;;;;;;49.42;14.05;;;;;;;7.11;69.53;100361.66;5071317;27;20405;-89
2022/10/11 00:38:46;;;;;;;31.73;13.13;;;;;;;7.05;69.18;100348.06;6165168;23;20072;-90
2022/10/11 00:41:59;;;;;;;33.45;12.48;;;;;;;7.23;69.26;100379.41;5071815;27;20899;-91
2022/10/11 00:45:32;;;;;;;30.55;11.95;;;;;;;7.21;68.54;100372.59;5072850;27;20399;-91
2022/10/11 00:52:27;;;;;;;28.77;12.27;;;;;;;6.76;69.01;100314.19;5110606;28;20055;-91
2022/10/11 00:56:11;;;;;;;33.15;13.35;;;;;;;7.16;68.64;100378.81;5109655;27;20125;-89
2022/10/11 00:59:17;;;;;;;31.17;12.30;;;;;;;6.98;69.78;100354.78;5104147;27;20410;-89
2022/10/11 01:02:56;;;;;;;27.50;12.93;;;;;;;7.04;69.42;100378.22;5147621;22;20439;-90
2022/10/11 01:06:18;;;;;;;26.95;12.40;;;;;;;7.07;69.46;100373.06;5091587;27;20421;-91
2022/10/11 01:09:15;;;;;;;28.75;12.52;;;;;;;6.79;69.39;100325.34;5091736;27;20405;-89
2022/10/11 01:12:32;;;;;;;33.92;12.65;;;;;;;7.07;69.60;100367.63;5154815;27;20389;-88
2022/10/11 01:15:31;;;;;;;27.75;13.15;;;;;;;6.87;69.68;100332.19;5120915;22;20396;-89
2022/10/11 01:18:56;;;;;;;28.75;14.07;;;;;;;7.07;69.79;100364.09;5123746;27;20893;-91
2022/10/11 01:21:48;;;;;;;24.80;13.18;;;;;;;6.63;70.14;100301.88;5069917;27;20138;-89
2022/10/11 01:34:54;;;;;;;28.70;11.18;;;;;;;6.90;70.65;100364.28;5130857;27;20397;-91
2022/10/11 01:38:43;;;;;;;23.75;10.02;;;;;;;6.89;70.76;100365.34;5104640;28;20114;-89
2022/10/11 01:56:05;;;;;;;23.70;9.85;;;;;;;6.18;72.16;100321.38;5131904;27;20946;-93
2022/10/11 01:59:16;;;;;;;23.10;9.13;;;;;;;6.54;72.17;100371.38;5127564;27;20424;-92
2022/10/11 02:02:22;;;;;;;19.00;8.93;;;;;;;6.06;72.13;100297.94;5071299;27;20398;-90
2022/10/11 02:05:34;;;;;;;18.80;8.45;;;;;;;6.43;72.12;100348.75;5111804;27;20403;-91
2022/10/11 02:08:43;;;;;;;15.48;7.35;;;;;;;6.67;72.12;100367.38;5092124;27;20393;-91
2022/10/11 02:11:26;;;;;;;18.67;7.97;;;;;;;6.34;71.92;100323.13;5053638;27;1787381;-90
2022/10/11 02:14:31;;;;;;;26.73;7.53;;;;;;;6.14;71.87;100288.50;5091433;27;20914;-92
2022/10/11 02:20:45;;;;;;;16.15;7.03;;;;;;;6.75;71.35;100373.13;5153507;27;20385;-92
2022/10/11 02:37:46;;;;;;;18.30;7.00;;;;;;;6.75;71.31;100370.41;5168827;27;20399;-89
2022/10/11 02:40:44;;;;;;;19.77;7.43;;;;;;;6.54;71.13;100336.84;5095904;27;20407;-90
2022/10/11 02:43:42;;;;;;;19.92;7.65;;;;;;;6.52;71.26;100332.75;5124761;27;20430;-91
2022/10/11 02:46:30;;;;;;;22.67;7.57;;;;;;;6.38;70.95;100307.94;5176922;27;21129;-91
2022/10/11 02:49:15;;;;;;;15.93;6.68;;;;;;;6.64;70.72;100346.97;5092335;27;1580040;-91
2022/10/11 02:52:04;;;;;;;19.02;7.32;;;;;;;6.58;70.58;100337.16;5102641;27;1593053;-92
2022/10/11 02:55:24;;;;;;;19.48;8.02;;;;;;;6.68;70.08;100348.09;5147479;27;20354;-89
2022/10/11 02:58:35;;;;;;;17.52;8.60;;;;;;;6.84;70.73;100376.19;5092293;27;20400;-90
2022/10/11 03:01:26;;;;;;;14.93;6.85;;;;;;;6.79;70.30;100387.84;5101354;27;20403;-90
2022/10/11 03:04:16;;;;;;;19.75;7.43;;;;;;;6.33;70.43;100318.78;5105527;27;20761;-93
2022/10/11 03:07:11;;;;;;;20.85;8.00;;;;;;;6.38;70.30;100318.81;5094587;27;20427;-90
2022/10/11 03:09:54;;;;;;;17.80;8.20;;;;;;;6.79;70.51;100378.88;5124402;27;20961;-91
2022/10/11 03:12:45;;;;;;;15.18;8.02;;;;;;;6.55;69.97;100333.06;5091851;27;20392;-91
2022/10/11 03:15:29;;;;;;;17.35;7.70;;;;;;;6.38;70.61;100318.81;5179588;27;20446;-90
2022/10/11 03:18:49;;;;;;;20.05;8.07;;;;;;;6.72;70.37;100376.41;5030512;28;20605;-89
2022/10/11 03:21:44;;;;;;;19.85;7.78;;;;;;;6.09;70.47;100259.44;5091814;27;21057;-89
2022/10/11 03:24:52;;;;;;;16.35;7.30;;;;;;;6.22;70.15;100271.72;5092411;27;20825;-93
2022/10/11 03:28:05;;;;;;;17.98;8.23;;;;;;;6.78;70.25;100358.22;5072983;28;20432;-93
2022/10/11 03:31:10;;;;;;;17.45;8.20;;;;;;;6.56;70.15;100332.00;5199439;27;20434;-92
2022/10/11 03:38:00;;;;;;;17.40;8.85;;;;;;;6.16;70.77;100293.66;5338109;22;21723;-91
2022/10/11 03:40:55;;;;;;;25.85;8.98;;;;;;;5.95;71.22;100277.22;5073746;23;20424;31
2022/10/11 03:43:51;;;;;;;21.92;9.52;;;;;;;6.16;71.02;100313.50;5196997;22;20437;-90
2022/10/11 03:47:05;;;;;;;22.95;8.98;;;;;;;6.54;71.22;100363.22;5091349;28;20395;-91
2022/10/11 03:49:53;;;;;;;20.67;9.10;;;;;;;5.84;70.91;100240.19;5090524;27;20397;-93
2022/10/11 03:52:51;;;;;;;31.23;8.88;;;;;;;5.77;71.25;100258.59;5158201;27;20424;-92
2022/10/11 04:00:21;;;;;;;28.52;9.68;;;;;;;6.13;71.37;100303.16;5114282;28;20089;-92
2022/10/11 04:03:31;;;;;;;20.42;9.48;;;;;;;6.13;70.57;100300.44;5110862;27;20389;-91
2022/10/11 04:06:24;;;;;;;24.42;10.10;;;;;;;6.29;70.63;100323.94;5132834;27;20431;-89
2022/10/11 04:09:58;;;;;;;19.23;10.02;;;;;;;6.50;70.24;100349.34;5158014;27;20111;-90
2022/10/11 04:12:53;;;;;;;34.50;10.23;;;;;;;5.87;69.72;100262.19;5091732;27;20402;-89
2022/10/11 04:15:42;;;;;;;25.30;10.68;;;;;;;6.17;69.68;100298.03;5063158;28;20418;-89
2022/10/11 04:19:03;;;;;;;27.88;11.40;;;;;;;6.54;69.44;100345.00;5083507;27;20894;-87
2022/10/11 04:21:44;;;;;;;33.90;11.40;;;;;;;6.06;68.83;100257.22;5070628;28;20398;-87
2022/10/11 04:24:34;;;;;;;30.05;10.93;;;;;;;6.40;69.29;100313.13;5006152;27;3498903;-88
2022/10/11 04:27:41;;;;;;;24.65;9.98;;;;;;;6.26;68.77;100281.00;5110856;27;20400;-90
2022/10/11 04:30:21;;;;;;;24.45;8.93;;;;;;;6.30;69.13;100303.84;5100473;22;20793;-89
2022/10/11 04:34:12;;;;;;;26.55;10.00;;;;;;;6.63;69.37;100349.97;5119151;27;20691;-88
2022/10/11 04:37:00;;;;;;;23.88;9.98;;;;;;;6.55;69.12;100343.09;5108108;27;20428;-84
2022/10/11 04:39:40;;;;;;;32.72;9.65;;;;;;;6.07;70.01;100264.28;5109600;27;20391;-86
2022/10/11 04:42:49;;;;;;;21.23;9.02;;;;;;;6.63;70.23;100347.25;5152160;27;20333;-90
2022/10/11 04:45:39;;;;;;;21.02;8.55;;;;;;;6.49;70.37;100331.41;5105849;27;20408;-88
2022/10/11 04:48:27;;;;;;;19.02;8.40;;;;;;;6.18;70.10;100267.06;5129068;27;20396;-86
2022/10/11 04:51:32;;;;;;;23.17;9.10;;;;;;;6.72;70.02;100343.78;5144966;27;20405;-87
2022/10/11 04:54:35;;;;;;;21.17;8.55;;;;;;;6.31;69.78;100283.72;5215672;27;20432;-87
2022/10/11 04:57:20;;;;;;;21.75;9.27;;;;;;;6.68;69.72;100356.25;5192452;27;20003;-89
2022/10/11 05:00:00;;;;;;;20.73;8.73;;;;;;;6.31;69.99;100300.03;5074928;28;20408;-88
2022/10/11 05:02:42;;;;;;;21.05;8.13;;;;;;;6.50;69.91;100314.03;5102254;27;20416;-87
2022/10/11 05:05:21;;;;;;;28.30;9.13;;;;;;;6.66;69.76;100325.81;5112796;27;20415;-89
2022/10/11 05:08:01;;;;;;;19.83;8.50;;;;;;;6.69;69.95;100311.69;5079921;28;20908;-90
2022/10/11 05:11:17;;;;;;;23.55;8.73;;;;;;;7.02;69.59;100351.28;5115320;27;1537814;-85
2022/10/11 05:14:10;;;;;;;20.85;8.80;;;;;;;7.10;69.67;100360.84;5115893;27;20392;-89
2022/10/11 05:16:56;;;;;;;33.10;8.90;;;;;;;6.77;69.24;100299.50;5089678;28;20443;-91
2022/10/11 05:19:42;;;;;;;28.23;10.25;;;;;;;6.84;69.10;100297.38;5076812;27;20409;-89
2022/10/11 05:22:35;;;;;;;26.73;10.57;;;;;;;6.86;69.09;100295.22;5127733;27;20732;-90
2022/10/11 05:25:42;;;;;;;42.35;10.48;;;;;;;7.01;69.01;100306.13;5199166;27;20744;-90
2022/10/11 05:28:34;;;;;;;28.80;10.43;;;;;;;7.11;68.96;100301.84;5174606;22;20381;-91
2022/10/11 05:31:25;;;;;;;32.20;11.75;;;;;;;7.28;68.88;100319.59;5195717;27;20438;-90
2022/10/11 05:34:22;;;;;;;31.77;10.77;;;;;;;7.03;68.51;100255.06;5123993;22;20408;-88
2022/10/11 05:37:02;;;;;;;34.15;12.38;;;;;;;7.18;68.66;100273.31;5112704;27;20413;-88
2022/10/11 05:40:00;;;;;;;40.40;10.60;;;;;;;7.36;67.56;100298.41;5132418;27;20392;-87
2022/10/11 05:42:40;;;;;;;44.15;10.82;;;;;;;7.19;67.50;100247.78;5135078;27;20396;-88
2022/10/11 05:45:39;;;;;;;33.72;10.43;;;;;;;7.37;67.34;100257.31;5142106;27;20341;-90
2022/10/11 05:48:33;;;;;;;58.45;12.05;;;;;;;8.05;66.56;100354.34;5063932;27;20422;-89
2022/10/11 05:51:13;;;;;;;42.83;10.07;;;;;;;7.81;66.51;100307.75;5118816;27;20395;-90
2022/10/11 05:54:06;;;;;;;46.65;10.13;;;;;;;7.52;66.12;100251.94;5102473;27;20404;-91
2022/10/11 05:56:57;;;;;;;73.60;10.48;;;;;;;7.84;66.36;100288.16;5111577;27;1568503;-91
2022/10/11 05:59:44;;;;;;;31.60;9.73;;;;;;;7.64;66.57;100259.81;5099548;27;1730079;-90
2022/10/11 06:02:33;;;;;;;50.67;11.00;;;;;;;7.72;66.51;100263.94;5080275;27;1603996;-90
2022/10/11 06:05:22;;;;;;;45.00;9.70;;;;;;;8.07;66.77;100303.13;5071973;28;20442;-89
2022/10/11 06:08:16;;;;;;;33.00;10.10;;;;;;;8.31;65.88;100319.75;5028528;28;20190;-88
2022/10/11 06:11:13;;;;;;;37.65;9.95;;;;;;;8.28;66.31;100299.34;5130814;27;20188;-89
2022/10/11 06:14:16;;;;;;;31.13;9.48;;;;;;;8.42;65.98;100327.69;5153207;27;20346;-88
2022/10/11 06:17:11;;;;;;;29.88;11.35;;;;;;;8.32;65.20;100305.06;5138353;27;20875;-88
2022/10/11 06:20:20;;;;;;;31.08;10.23;;;;;;;8.41;65.41;100300.69;5193797;27;20413;-86
2022/10/11 06:23:25;;;;;;;27.17;9.30;;;;;;;8.46;65.04;100297.97;5134419;27;20480;-90
2022/10/11 06:26:23;;;;;;;26.23;8.52;;;;;;;8.52;63.60;100305.06;5183088;27;20833;-87
2022/10/11 06:29:35;;;;;;;22.67;8.77;;;;;;;8.61;64.17;100306.13;5131546;27;20389;-89
2022/10/11 06:32:32;;;;;;;26.02;7.43;;;;;;;8.53;64.61;100289.53;5145368;27;20404;-88
2022/10/11 06:35:30;;;;;;;20.55;7.03;;;;;;;8.61;64.45;100276.16;5119338;27;20400;-88
2022/10/11 06:38:33;;;;;;;20.35;7.88;;;;;;;8.91;63.71;100301.72;5185699;27;20498;-89
2022/10/11 06:52:21;;;;;;;17.40;5.78;;;;;;;8.99;62.20;100303.03;5139918;27;20385;-89
2022/10/11 06:55:15;;;;;;;20.95;6.07;;;;;;;8.80;61.36;100259.19;5120581;27;20985;-89
2022/10/11 06:58:14;;;;;;;21.50;6.13;;;;;;;8.74;61.34;100230.31;5192387;27;20446;-90
2022/10/11 07:01:12;;;;;;;19.55;5.82;;;;;;;9.18;61.40;100309.50;5090126;27;20430;-89
2022/10/11 07:04:16;;;;;;;30.63;6.30;;;;;;;9.10;61.48;100289.06;5131861;27;20916;-88
2022/10/11 07:07:21;;;;;;;27.58;5.38;;;;;;;9.25;61.55;100318.22;5085098;27;20504;-88
2022/10/11 07:10:17;;;;;;;22.65;4.47;;;;;;;9.18;60.14;100301.31;5127755;27;20455;-87
2022/10/11 07:13:11;;;;;;;14.52;4.43;;;;;;;9.07;60.21;100284.19;5090945;27;20411;-87
2022/10/11 07:16:11;;;;;;;12.48;4.18;;;;;;;9.32;59.85;100310.53;5185298;27;20402;-89
2022/10/11 07:19:43;;;;;;;7.88;3.50;;;;;;;9.21;59.23;100284.41;5150685;27;20425;-87
2022/10/11 07:22:38;;;;;;;20.02;3.97;;;;;;;9.45;60.41;100314.56;5048936;27;20443;-89
2022/10/11 07:25:53;;;;;;;14.38;4.40;;;;;;;9.22;59.20;100253.28;5096246;27;20485;-89
2022/10/11 07:28:55;;;;;;;16.45;4.22;;;;;;;9.59;58.80;100295.66;5090628;27;20403;-90
2022/10/11 07:32:07;;;;;;;14.57;4.15;;;;;;;9.45;58.81;100251.78;5135332;27;20429;-90
2022/10/11 07:45:15;;;;;;;12.40;3.53;;;;;;;9.75;55.82;100296.38;5412097;22;17948019;-92
2022/10/11 07:48:20;;;;;;;13.15;3.30;;;;;;;9.79;56.22;100291.97;5125023;27;20508;-92
2022/10/11 07:51:16;;;;;;;8.50;2.90;;;;;;;9.73;53.78;100276.72;5093566;27;20430;-92
2022/10/11 07:54:19;;;;;;;30.60;6.25;;;;;;;10.03;55.05;100294.78;5133728;27;20427;-93
2022/10/11 07:57:22;;;;;;;12.50;3.90;;;;;;;10.12;54.97;100295.81;5135531;27;20431;-92
2022/10/11 08:00:52;;;;;;;10.80;4.32;;;;;;;10.22;54.58;100286.72;5133260;27;20380;-90
2022/10/11 08:03:57;;;;;;;14.27;4.00;;;;;;;10.24;53.56;100288.06;5125826;27;20387;-92
2022/10/11 08:06:57;;;;;;;16.73;4.00;;;;;;;10.11;54.06;100239.56;5134657;27;20238;-93
2022/10/11 08:09:37;;;;;;;11.93;3.97;;;;;;;10.17;53.58;100248.53;4318871;27;24120848;-92
2022/10/11 08:12:49;;;;;;;19.15;4.53;;;;;;;10.08;53.05;100227.28;5119068;27;20132;-92
2022/10/11 08:15:50;;;;;;;21.77;5.10;;;;;;;10.57;52.85;100289.16;5086416;27;20493;-94
2022/10/11 08:19:02;;;;;;;27.92;5.15;;;;;;;10.55;52.31;100285.88;5131866;27;20483;-92
2022/10/11 08:22:01;;;;;;;13.82;4.20;;;;;;;10.37;51.31;100251.09;5194181;27;20424;-91
2022/10/11 08:25:00;;;;;;;18.30;3.95;;;;;;;10.51;51.26;100287.56;5130688;27;20920;-92
2022/10/11 08:28:04;;;;;;;31.92;6.43;;;;;;;10.23;51.12;100220.03;5165889;27;20024;-92
2022/10/11 08:31:23;;;;;;;16.08;4.43;;;;;;;10.42;50.79;100240.09;4519625;27;18012507;-93
2022/10/11 08:34:50;;;;;;;15.02;4.00;;;;;;;10.19;49.68;100189.72;5086945;28;20385;-94
2022/10/11 08:37:58;;;;;;;23.25;4.88;;;;;;;10.48;48.89;100217.06;5137817;27;20408;-92
2022/10/11 08:41:24;;;;;;;19.83;5.18;;;;;;;10.86;48.44;100268.31;5141980;27;20391;-91
2022/10/11 08:44:37;;;;;;;12.65;4.53;;;;;;;10.84;48.20;100243.22;5086479;22;20057;-89
2022/10/11 08:47:10;;;;;;;9.63;3.70;;;;;;;10.56;47.74;100182.81;5041644;28;20037;-92
2022/10/11 08:49:38;;;;;;;14.00;4.55;;;;;;;10.75;48.01;100197.34;5033318;28;20044;-93
2022/10/11 08:52:13;;;;;;;29.95;5.03;;;;;;;10.81;47.37;100212.59;5057461;28;20024;-92
2022/10/11 08:55:00;;;;;;;20.95;4.50;;;;;;;11.13;47.78;100252.13;5053308;28;20032;-92
2022/10/11 08:57:30;;;;;;;19.95;4.30;;;;;;;10.64;47.31;100173.97;5048016;28;20040;-91
2022/10/11 09:00:07;;;;;;;23.65;4.63;;;;;;;11.04;46.16;100240.22;5033545;28;20033;-91
2022/10/11 09:02:34;;;;;;;19.65;4.50;;;;;;;11.02;47.13;100242.41;5057726;28;20040;-90
2022/10/11 09:05:03;;;;;;;13.20;3.97;;;;;;;10.88;46.94;100208.69;5058795;28;20484;-87
2022/10/11 09:07:47;;;;;;;23.67;4.80;;;;;;;11.07;46.49;100236.09;5034424;28;20048;-89
2022/10/11 09:10:44;;;;;;;20.20;4.40;;;;;;;11.20;47.24;100229.88;5057198;28;20662;-87
2022/10/11 09:13:40;;;;;;;20.77;5.53;;;;;;;11.35;48.52;100228.84;5055355;28;20055;-89
2022/10/11 09:16:41;;;;;;;15.32;5.00;;;;;;;11.00;46.84;100174.31;5021192;28;20126;-89
2022/10/11 09:19:47;;;;;;;19.98;4.65;;;;;;;11.49;46.81;100222.34;5068157;28;20049;-87
2022/10/11 09:22:28;;;;;;;33.90;5.78;;;;;;;11.59;46.13;100217.81;5031650;28;20037;-86
2022/10/11 09:25:13;;;;;;;22.20;5.10;;;;;;;11.46;46.53;100222.94;5040761;28;20406;-89
2022/10/11 09:28:03;;;;;;;25.17;5.10;;;;;;;11.47;46.68;100212.78;5034683;28;20437;-89
2022/10/11 09:30:31;;;;;;;18.33;5.22;;;;;;;11.37;46.46;100194.59;5052851;28;20041;-86
2022/10/11 09:33:03;;;;;;;12.13;3.45;;;;;;;11.49;46.25;100208.66;5052088;28;20123;-89
2022/10/11 09:35:37;;;;;;;9.82;3.30;;;;;;;11.05;45.46;100141.41;5047573;28;20040;-89
2022/10/11 09:38:29;;;;;;;22.48;3.92;;;;;;;11.20;44.63;100145.03;5016719;28;20035;-90
2022/10/11 09:41:20;;;;;;;15.40;3.60;;;;;;;11.58;45.90;100195.09;5032302;28;20143;-88
2022/10/11 09:43:49;;;;;;;22.63;3.72;;;;;;;11.32;45.63;100133.63;5029704;28;20057;-88
2022/10/11 09:46:43;;;;;;;25.75;4.40;;;;;;;11.11;44.44;100095.63;5043919;28;20047;-88
2022/10/11 09:49:18;;;;;;;10.90;3.58;;;;;;;11.53;44.70;100156.84;5029045;28;20033;-89
2022/10/11 09:51:55;;;;;;;16.63;3.60;;;;;;;11.56;44.90;100149.97;5033239;28;20136;-88
2022/10/11 09:54:40;;;;;;;7.15;2.90;;;;;;;11.17;44.18;100090.91;5032413;28;20450;-88
2022/10/11 09:57:24;;;;;;;11.30;3.22;;;;;;;11.20;44.07;100093.84;5004966;28;20045;-87
2022/10/11 10:00:22;;;;;;;13.27;3.47;;;;;;;11.81;43.94;100170.63;5030426;28;20045;-90
2022/10/11 10:02:55;;;;;;;16.02;4.35;;;;;;;11.51;43.65;100115.25;5049304;28;20036;-88
2022/10/11 10:05:31;;;;;;;8.50;2.65;;;;;;;11.83;43.59;100157.44;5012757;28;20029;-89
2022/10/11 10:08:08;;;;;;;18.02;3.60;;;;;;;11.92;42.87;100156.50;5010044;28;20108;-88
2022/10/11 10:10:51;;;;;;;8.30;3.08;;;;;;;11.65;43.44;100128.97;5037182;28;20124;-88
2022/10/11 10:13:20;;;;;;;16.88;3.40;;;;;;;11.57;42.97;100119.53;5016602;28;20095;-88
2022/10/11 10:15:49;;;;;;;12.32;2.90;;;;;;;11.63;44.42;100129.28;4995819;28;20057;-89
2022/10/11 10:18:36;;;;;;;7.75;3.30;;;;;;;11.95;43.98;100166.84;5033942;28;20056;-88
2022/10/11 10:21:13;;;;;;;14.80;3.72;;;;;;;11.85;42.45;100136.88;5016016;28;20097;-87
2022/10/11 10:23:40;;;;;;;8.85;3.00;;;;;;;11.89;40.91;100135.16;5014489;28;20632;-88
2022/10/11 10:26:20;;;;;;;16.83;3.38;;;;;;;11.91;40.86;100127.44;5026688;28;20534;-88
2022/10/11 10:29:08;;;;;;;10.50;3.20;;;;;;;12.04;40.44;100158.72;5008400;28;20612;-88
2022/10/11 10:31:55;;;;;;;8.25;3.10;;;;;;;11.83;41.10;100116.34;5015189;28;20423;-88
2022/10/11 10:34:34;;;;;;;13.63;3.53;;;;;;;11.95;40.98;100128.50;5017850;28;20049;-88
2022/10/11 10:37:31;;;;;;;21.08;3.08;;;;;;;11.97;39.87;100109.00;5029822;28;20037;-88
2022/10/11 10:40:16;;;;;;;7.60;2.53;;;;;;;11.68;39.24;100073.59;5028366;28;20120;-89
2022/10/11 10:42:42;;;;;;;9.93;3.08;;;;;;;12.27;39.65;100145.97;5032529;28;20079;-87
2022/10/11 10:45:16;;;;;;;8.27;2.60;;;;;;;11.99;39.49;100088.41;5036744;28;20044;-86
2022/10/11 10:48:02;;;;;;;243.55;75.00;;;;;;;12.26;39.86;100114.19;5047822;28;20033;-89
2022/10/11 10:51:00;;;;;;;8.35;3.20;;;;;;;12.48;38.45;100137.31;5073624;28;20041;-91
2022/10/11 10:53:36;;;;;;;10.18;3.60;;;;;;;12.54;37.36;100136.13;4959905;28;20068;-89
2022/10/11 10:56:45;;;;;;;18.88;4.18;;;;;;;12.65;37.45;100137.53;4957993;28;20042;-90
2022/10/11 10:59:42;;;;;;;10.25;3.10;;;;;;;12.14;37.50;100072.75;4960684;28;20100;-91
2022/10/11 11:02:29;;;;;;;9.73;3.50;;;;;;;12.19;36.95;100081.69;4957536;28;20038;-89
2022/10/11 11:05:15;;;;;;;;;;;;;;;12.51;37.94;100123.00;4968084;28;20066;-87
2022/10/11 11:07:56;;;;;;;13.88;3.22;;;;;;;12.56;37.38;100126.47;4989659;28;19921;-91
2022/10/11 11:10:31;;;;;;;6.50;2.63;;;;;;;12.35;36.54;100087.69;4961452;28;20502;-89
2022/10/11 11:13:10;;;;;;;11.77;3.00;;;;;;;11.99;36.86;100022.63;4986472;28;20080;-87
2022/10/11 11:15:59;;;;;;;7.60;3.30;;;;;;;12.31;36.63;100066.66;5004222;28;20061;-85
2022/10/11 11:18:55;;;;;;;9.93;3.40;;;;;;;12.49;35.86;100117.03;5018938;28;20042;-88
2022/10/11 11:22:05;;;;;;;11.48;3.38;;;;;;;12.48;35.08;100094.25;4998413;28;20042;-88
2022/10/11 11:24:51;;;;;;;17.75;3.10;;;;;;;12.64;35.93;100098.31;4926242;29;20052;-89
2022/10/11 11:27:54;;;;;;;11.77;3.00;;;;;;;12.69;35.81;100086.44;4974413;28;20045;-90
2022/10/11 11:30:29;;;;;;;8.43;3.28;;;;;;;12.60;33.57;100072.63;5034643;28;20067;-88
2022/10/11 11:33:19;;;;;;;19.05;3.53;;;;;;;12.79;33.49;100085.38;5045234;28;20036;-87
2022/10/11 11:35:55;;;;;;;16.80;3.40;;;;;;;12.75;32.50;100082.44;5037228;28;20232;-90
2022/10/11 11:38:34;;;;;;;;;;;;;;;12.81;34.26;100083.13;5058564;28;20037;-91
2022/10/11 11:41:04;;;;;;;9.20;3.70;;;;;;;12.92;33.92;100095.50;5034263;28;19927;-90
2022/10/11 11:43:38;;;;;;;8.38;2.75;;;;;;;12.52;33.15;100012.22;5002337;28;20937;-88
2022/10/11 11:46:15;;;;;;;26.05;5.47;;;;;;;13.02;33.04;100083.50;5018563;28;20037;-89
2022/10/11 11:48:43;;;;;;;21.73;3.80;;;;;;;12.50;34.16;99987.81;5043956;28;20046;-90
2022/10/11 11:51:17;;;;;;;16.35;3.28;;;;;;;12.64;32.40;100029.72;5025854;28;20040;-91
2022/10/11 11:53:47;;;;;;;12.93;3.20;;;;;;;12.97;33.17;100067.13;5024028;28;20040;-89
2022/10/11 11:56:41;;;;;;;64.43;6.68;;;;;;;12.75;34.52;100016.59;5017996;28;20666;-89
2022/10/11 11:59:35;;;;;;;79.30;8.32;;;;;;;12.62;34.55;99973.56;5019795;28;20040;-91
2022/10/11 12:02:27;;;;;;;34.08;5.65;;;;;;;13.35;34.84;100062.94;5038511;28;20063;-91
2022/10/11 12:04:58;;;;;;;121.47;13.00;;;;;;;13.16;34.25;100035.63;5007357;28;20057;-91
2022/10/11 12:07:26;;;;;;;96.75;8.77;;;;;;;13.31;34.38;100050.97;5018889;28;20037;-89
2022/10/11 12:10:26;;;;;;;24.77;5.10;;;;;;;13.09;33.90;100018.78;5036209;28;20131;-91
2022/10/11 12:13:16;;;;;;;41.05;7.88;;;;;;;13.31;34.59;100055.63;5054959;28;20048;-91
2022/10/11 12:16:03;;;;;;;19.63;4.60;;;;;;;13.03;33.02;100000.03;5019515;28;20498;-90
2022/10/11 12:18:31;;;;;;;23.77;4.15;;;;;;;12.94;33.42;99981.53;5033205;28;20500;-87
2022/10/11 12:21:22;;;;;;;32.65;8.32;;;;;;;13.28;34.20;100039.78;5033460;28;20132;-90
2022/10/11 12:23:52;;;;;;;19.85;4.40;;;;;;;12.94;33.04;99991.72;5015015;28;20631;-88
2022/10/11 12:26:27;;;;;;;27.48;5.53;;;;;;;13.17;33.33;100022.72;5003102;28;20048;-91
2022/10/11 12:29:12;;;;;;;15.05;4.00;;;;;;;13.21;33.14;100039.38;5033388;28;20468;-88
2022/10/11 12:31:38;;;;;;;16.85;4.72;;;;;;;12.95;33.77;99993.34;5005309;28;20528;-88
2022/10/11 12:34:08;;;;;;;37.03;7.13;;;;;;;13.25;32.77;100032.19;5017736;28;20380;-89
2022/10/11 12:36:47;;;;;;;126.68;13.27;;;;;;;12.91;33.07;99982.19;5017495;28;20036;-91
2022/10/11 12:39:20;;;;;;;98.32;8.25;;;;;;;13.22;32.38;100025.34;5020910;28;20037;-89
2022/10/11 12:41:49;;;;;;;48.17;6.63;;;;;;;13.17;32.52;100028.19;5002052;28;20750;-90
2022/10/11 12:44:21;;;;;;;411.13;30.40;;;;;;;13.24;32.34;100025.84;5020073;28;20056;-91
2022/10/11 12:46:54;;;;;;;126.78;13.43;;;;;;;13.22;31.21;100025.34;5042889;28;20040;-89
2022/10/11 12:49:32;;;;;;;55.33;7.10;;;;;;;13.20;31.67;100024.84;5017424;28;20035;-89
2022/10/11 12:52:21;;;;;;;87.15;9.60;;;;;;;13.28;33.33;100012.34;5034407;28;20052;-90
2022/10/11 12:55:18;;;;;;;123.30;11.48;;;;;;;13.22;32.30;100019.84;5035915;28;20037;-92
2022/10/11 12:57:50;;;;;;;107.75;9.30;;;;;;;13.21;32.62;100009.16;5019312;28;20067;-89
2022/10/11 13:00:28;;;;;;;73.55;8.05;;;;;;;12.64;32.81;99930.97;5034355;28;20399;-91
2022/10/11 13:02:56;;;;;;;31.80;6.75;;;;;;;12.88;33.86;99973.75;5016543;28;20044;-88
2022/10/11 13:05:28;;;;;;;27.92;5.72;;;;;;;12.68;33.41;99942.97;5003530;28;20082;-88
2022/10/11 13:08:01;;;;;;;20.45;4.43;;;;;;;12.91;34.11;99967.63;5034812;28;20557;-89
2022/10/11 13:10:41;;;;;;;34.15;4.68;;;;;;;12.67;34.02;99935.84;5022854;28;20075;-89
2022/10/11 13:13:19;;;;;;;28.80;6.75;;;;;;;12.94;35.13;99967.81;5049609;28;20698;-88
2022/10/11 13:15:45;;;;;;;40.58;7.53;;;;;;;12.88;34.05;99958.13;5015167;28;20146;-89
2022/10/11 13:18:15;;;;;;;70.30;9.40;;;;;;;12.86;34.54;99948.56;5017040;28;20037;-87
2022/10/11 13:20:42;;;;;;;219.15;18.00;;;;;;;13.12;34.92;99995.41;5016222;28;20430;-88
2022/10/11 13:23:28;;;;;;;100.43;9.65;;;;;;;12.94;34.81;99967.00;5038805;28;20502;-88
2022/10/11 13:25:55;;;;;;;107.45;10.95;;;;;;;12.59;33.70;99911.91;5039728;28;20044;-88
2022/10/11 13:28:22;;;;;;;246.05;22.02;;;;;;;12.75;33.70;99939.78;5041265;28;20063;-88
2022/10/11 13:30:53;;;;;;;344.10;26.08;;;;;;;13.10;34.43;99989.41;5023954;28;20123;-89
2022/10/11 13:33:31;;;;;;;243.05;19.38;;;;;;;13.05;34.49;99990.34;5059331;28;20517;-88
2022/10/11 13:36:03;;;;;;;137.05;12.07;;;;;;;13.06;35.47;99991.16;5043512;28;20091;-88
2022/10/11 13:38:33;;;;;;;60.20;8.13;;;;;;;12.86;36.96;99968.59;5031656;28;20041;-88
2022/10/11 13:41:03;;;;;;;45.30;7.60;;;;;;;12.78;35.01;99960.28;5022204;28;20052;-89
2022/10/11 13:43:31;;;;;;;47.70;7.20;;;;;;;12.70;36.70;99961.84;5021313;28;20045;-88
2022/10/11 13:45:58;;;;;;;;;;;;;;;12.89;37.18;99995.41;5040627;28;20123;-87
2022/10/11 13:48:25;;;;;;;21.65;5.90;;;;;;;12.80;34.88;99994.53;5038320;28;19921;-89
2022/10/11 13:51:17;;;;;;;34.90;7.07;;;;;;;12.30;35.81;99911.53;5025707;28;20067;-89
2022/10/11 13:54:02;;;;;;;30.92;6.00;;;;;;;12.54;37.46;99960.59;5041403;28;20102;-87
2022/10/11 13:56:53;;;;;;;16.05;5.10;;;;;;;12.38;37.61;99944.50;5057720;28;20575;-89
2022/10/11 13:59:23;;;;;;;26.63;6.60;;;;;;;12.38;39.93;99952.72;5039036;28;20037;-90
2022/10/11 14:01:56;;;;;;;34.88;6.25;;;;;;;12.56;38.15;99994.81;5034164;28;20517;-89
2022/10/11 14:04:26;;;;;;;14.10;5.15;;;;;;;11.99;39.17;99918.50;5061196;28;20031;-87
2022/10/11 14:07:01;;;;;;;24.30;5.00;;;;;;;11.95;39.17;99928.47;5025973;28;20037;-88
2022/10/11 14:09:29;;;;;;;31.38;6.40;;;;;;;12.34;40.77;99995.56;5013648;28;20111;-90
2022/10/11 14:12:15;;;;;;;52.42;7.80;;;;;;;12.01;40.71;99953.81;5021363;28;20095;-89
2022/10/11 14:14:42;;;;;;;76.38;17.85;;;;;;;12.02;39.23;99968.31;5033839;28;20033;-89
2022/10/11 14:17:19;;;;;;;;;;;;;;;12.04;38.36;99991.56;5025722;28;20041;-89
2022/10/11 14:20:01;;;;;;;50.72;7.75;;;;;;;11.53;37.39;99915.88;5035959;28;19970;-91
2022/10/11 14:22:29;;;;;;;36.45;6.07;;;;;;;11.82;37.42;99972.25;5061595;28;20037;-91
2022/10/11 14:24:56;;;;;;;61.38;8.93;;;;;;;11.68;38.79;99962.13;5031830;28;20040;-89
2022/10/11 14:27:26;;;;;;;44.05;7.78;;;;;;;11.41;40.74;99927.31;5027562;28;20033;-90
2022/10/11 14:29:53;;;;;;;63.13;8.90;;;;;;;11.50;40.92;99961.09;5024330;28;20029;-90
2022/10/11 14:32:28;;;;;;;75.35;9.52;;;;;;;11.26;41.25;99935.84;5037768;28;20063;-90
2022/10/11 14:34:56;;;;;;;69.40;10.70;;;;;;;11.44;42.25;99986.97;5038720;28;20087;-88
2022/10/11 14:37:24;;;;;;;114.20;15.48;;;;;;;11.13;42.76;99942.13;5045987;28;20045;-93
2022/10/11 14:39:52;;;;;;;101.90;16.50;;;;;;;11.08;43.30;99959.41;5032932;28;20037;-94